Time;durP1;ratioP1;P1;durP2;ratioP2;P2;SDS_P1;SDS_P2;PMS_P1;PMS_P2;Temp;Humidity;BMP_temperature;BMP_pressure;BME280_temperature;BME280_humidity;BME280_pressure;Samples;Min_cycle;Max_cycle;Signal;HPM_P1;HPM_P2
2023/12/06 00:01:02;;;;;;;0.40;0.33;;;4.10;99.90;;;;;;5056883;28;20184;-85
2023/12/06 00:03:28;;;;;;;1.10;0.40;;;;;;;;;;5079896;28;20173;-86
2023/12/06 00:05:53;;;;;;;0.40;0.30;;;4.10;99.90;;;;;;5071977;28;20778;-87
2023/12/06 00:08:19;;;;;;;0.53;0.53;;;;;;;;;;5072298;28;20200;-86
2023/12/06 00:10:47;;;;;;;0.30;0.30;;;;;;;;;;5058765;28;20180;-86
2023/12/06 00:13:13;;;;;;;0.45;0.40;;;4.10;99.90;;;;;;5061280;28;20431;-83
2023/12/06 00:15:38;;;;;;;0.40;0.30;;;4.10;99.90;;;;;;5057213;28;20204;-85
2023/12/06 00:18:04;;;;;;;0.40;0.30;;;4.10;99.90;;;;;;5056184;28;20223;-86
2023/12/06 00:20:30;;;;;;;0.40;0.30;;;;;;;;;;5070255;28;20196;-85
2023/12/06 00:22:56;;;;;;;0.47;0.47;;;;;;;;;;5060160;28;20176;-86
2023/12/06 00:25:22;;;;;;;0.30;0.30;;;4.10;99.90;;;;;;5051891;28;20427;-85
2023/12/06 00:27:47;;;;;;;0.40;0.35;;;4.20;99.90;;;;;;5061846;28;20450;-85
2023/12/06 00:30:13;;;;;;;0.40;0.30;;;4.10;99.90;;;;;;5044406;28;20188;-84
2023/12/06 00:32:39;;;;;;;0.30;0.30;;;;;;;;;;5060289;28;20180;-82
2023/12/06 00:35:07;;;;;;;0.60;0.50;;;4.20;99.90;;;;;;5076012;28;20188;-84
2023/12/06 00:37:33;;;;;;;8.85;1.20;;;4.20;99.90;;;;;;5059211;28;20458;-82
2023/12/06 00:39:58;;;;;;;3.10;2.03;;;4.20;99.90;;;;;;5061000;28;20184;-84
2023/12/06 00:42:24;;;;;;;8.03;2.87;;;4.20;99.90;;;;;;5079504;28;20168;-83
2023/12/06 00:44:49;;;;;;;3.90;1.83;;;4.20;99.90;;;;;;5053198;28;20188;-82
2023/12/06 00:47:15;;;;;;;1.03;0.63;;;4.20;99.90;;;;;;5080509;28;20192;-84
2023/12/06 00:49:40;;;;;;;0.87;0.87;;;4.20;99.90;;;;;;5056955;28;20287;-83
2023/12/06 00:52:06;;;;;;;1.67;1.57;;;;;;;;;;5069714;28;20180;-83
2023/12/06 00:54:32;;;;;;;1.40;1.30;;;4.20;99.90;;;;;;5047402;28;20185;-82
2023/12/06 00:56:57;;;;;;;1.27;1.17;;;4.20;99.90;;;;;;5057380;28;20484;-83
2023/12/06 00:59:23;;;;;;;0.50;0.50;;;4.20;99.90;;;;;;5063221;28;20204;-83
2023/12/06 01:01:49;;;;;;;0.67;0.67;;;;;;;;;;5056723;28;20188;-84
2023/12/06 01:04:14;;;;;;;4.22;2.35;;;4.20;99.90;;;;;;5051260;28;20187;-84
2023/12/06 01:06:40;;;;;;;1.27;1.17;;;4.20;99.90;;;;;;5068671;28;20652;-83
2023/12/06 01:09:06;;;;;;;0.50;0.50;;;;;;;;;;5078194;28;20179;-83
2023/12/06 01:11:32;;;;;;;0.95;0.90;;;4.20;99.90;;;;;;5078496;28;20595;-85
2023/12/06 01:13:58;;;;;;;0.93;0.93;;;4.30;99.90;;;;;;5072356;28;20152;-83
2023/12/06 01:16:23;;;;;;;1.03;0.90;;;4.30;99.90;;;;;;5080084;28;20419;-83
2023/12/06 01:18:49;;;;;;;0.73;0.50;;;4.30;99.90;;;;;;5059443;28;20685;-84
2023/12/06 01:21:15;;;;;;;1.00;1.00;;;;;;;;;;5070838;28;20173;-83
2023/12/06 01:23:41;;;;;;;1.20;1.10;;;;;;;;;;5050467;28;21127;-82
2023/12/06 01:26:06;;;;;;;1.83;1.73;;;4.30;99.90;;;;;;5056229;28;20206;-82
2023/12/06 01:28:32;;;;;;;0.93;0.80;;;4.30;99.90;;;;;;5068700;28;20432;-84
2023/12/06 01:30:57;;;;;;;1.03;0.70;;;4.30;99.90;;;;;;5061397;28;20173;-82
2023/12/06 01:33:23;;;;;;;0.70;0.70;;;4.30;99.90;;;;;;5072734;28;20171;-84
2023/12/06 01:35:49;;;;;;;1.93;1.80;;;;;;;;;;5077936;28;20177;-85
2023/12/06 01:38:14;;;;;;;0.40;0.30;;;4.20;99.90;;;;;;5060728;28;20184;-85
2023/12/06 01:40:40;;;;;;;0.50;0.30;;;;;;;;;;5069763;28;20529;-85
2023/12/06 01:43:06;;;;;;;0.30;0.30;;;;;;;;;;5044972;28;20177;-85
2023/12/06 01:45:32;;;;;;;0.30;0.30;;;4.20;99.90;;;;;;5050245;28;20165;-85
2023/12/06 01:47:58;;;;;;;0.43;0.43;;;4.30;99.90;;;;;;5052675;28;20253;-83
2023/12/06 01:50:25;;;;;;;0.45;0.30;;;4.20;99.90;;;;;;5063510;28;20181;-83
2023/12/06 01:52:52;;;;;;;0.60;0.60;;;4.20;99.90;;;;;;5060851;28;20267;-84
2023/12/06 01:55:17;;;;;;;0.60;0.60;;;4.30;99.90;;;;;;5063005;28;20199;-84
2023/12/06 01:57:44;;;;;;;0.80;0.80;;;4.30;99.90;;;;;;5070343;28;20192;-85
2023/12/06 02:00:10;;;;;;;1.20;0.77;;;4.30;99.90;;;;;;5055606;28;20210;-84
2023/12/06 02:02:35;;;;;;;0.53;0.53;;;4.30;99.90;;;;;;5079433;28;20164;-86
2023/12/06 02:05:01;;;;;;;0.30;0.20;;;4.30;99.90;;;;;;5074803;28;20422;-87
2023/12/06 02:07:27;;;;;;;0.40;0.40;;;4.30;99.90;;;;;;5061456;28;20210;-85
2023/12/06 02:09:53;;;;;;;0.30;0.20;;;4.30;99.90;;;;;;5054384;28;20179;-84
2023/12/06 02:12:19;;;;;;;0.47;0.40;;;;;;;;;;5052966;28;20176;-85
2023/12/06 02:14:45;;;;;;;0.60;0.53;;;;;;;;;;5060378;28;20181;-85
2023/12/06 02:17:11;;;;;;;0.40;0.30;;;4.30;99.90;;;;;;5058630;28;20457;-85
2023/12/06 02:19:39;;;;;;;0.40;0.40;;;4.30;99.90;;;;;;5051114;28;20458;-85
2023/12/06 02:22:05;;;;;;;0.73;0.73;;;4.30;99.90;;;;;;5053611;28;20252;-83
2023/12/06 02:24:32;;;;;;;1.70;0.60;;;4.30;99.90;;;;;;5063306;28;20710;-85
2023/12/06 02:26:58;;;;;;;2.03;1.63;;;4.30;99.90;;;;;;5043376;28;20193;-85
2023/12/06 02:29:24;;;;;;;1.80;1.00;;;4.40;99.90;;;;;;5049290;28;20176;-83
2023/12/06 02:31:49;;;;;;;2.42;1.90;;;4.30;99.90;;;;;;5079920;28;20540;-85
2023/12/06 02:34:21;;;;;;;1.57;1.47;;;4.40;99.90;;;;;;5079528;28;20173;-84
2023/12/06 02:36:50;;;;;;;0.90;0.90;;;4.40;99.90;;;;;;5061737;28;20192;-85
2023/12/06 02:39:17;;;;;;;0.68;0.68;;;4.40;99.90;;;;;;5077950;28;20203;-82
2023/12/06 02:41:43;;;;;;;0.88;0.80;;;4.40;99.90;;;;;;5072553;28;20175;-82
2023/12/06 02:44:08;;;;;;;1.17;0.80;;;4.40;99.90;;;;;;5070634;28;20182;-84
2023/12/06 02:46:36;;;;;;;0.70;0.70;;;4.40;99.90;;;;;;5051008;28;20424;-84
2023/12/06 02:49:01;;;;;;;0.65;0.65;;;4.40;99.90;;;;;;5073301;28;20199;-84
2023/12/06 02:51:27;;;;;;;0.90;0.67;;;;;;;;;;5078016;28;20639;-83
2023/12/06 02:53:53;;;;;;;0.40;0.30;;;;;;;;;;5053118;28;20314;-86
2023/12/06 02:56:19;;;;;;;0.40;0.40;;;;;;;;;;5049512;28;20415;-83
2023/12/06 02:58:45;;;;;;;0.50;0.50;;;4.50;99.90;;;;;;5054894;28;20454;-84
2023/12/06 03:01:11;;;;;;;0.40;0.40;;;4.40;99.90;;;;;;5057943;28;20423;-82
2023/12/06 03:03:37;;;;;;;1.00;0.60;;;4.50;99.90;;;;;;5054434;28;20188;-83
2023/12/06 03:06:02;;;;;;;2.53;0.60;;;4.50;99.90;;;;;;5066276;28;20215;-83
2023/12/06 03:08:28;;;;;;;0.57;0.37;;;;;;;;;;5066814;28;20211;-83
2023/12/06 03:10:54;;;;;;;0.73;0.73;;;4.50;99.90;;;;;;5062132;28;20188;-82
2023/12/06 03:13:20;;;;;;;0.87;0.50;;;;;;;;;;5074879;28;20462;-83
2023/12/06 03:15:45;;;;;;;2.43;0.83;;;4.50;99.90;;;;;;5072764;28;20176;-81
2023/12/06 03:18:11;;;;;;;0.50;0.50;;;;;;;;;;5068457;28;20494;-83
2023/12/06 03:20:37;;;;;;;0.30;0.30;;;4.50;99.90;;;;;;5070566;28;20274;-84
2023/12/06 03:23:03;;;;;;;0.53;0.53;;;4.50;99.90;;;;;;5059588;28;20530;-83
2023/12/06 03:25:28;;;;;;;1.13;1.07;;;4.50;99.90;;;;;;5055288;28;20185;-82
2023/12/06 03:27:55;;;;;;;2.77;2.57;;;4.50;99.90;;;;;;5049669;28;20469;-84
2023/12/06 03:30:21;;;;;;;0.80;0.80;;;4.50;99.90;;;;;;5072904;28;20690;-80
2023/12/06 03:32:47;;;;;;;6.60;2.73;;;;;;;;;;5064953;28;20181;-81
2023/12/06 03:35:12;;;;;;;1.10;1.10;;;4.50;99.90;;;;;;5068832;28;21227;-82
2023/12/06 03:37:38;;;;;;;1.33;1.23;;;;;;;;;;5055868;28;20455;-83
2023/12/06 03:40:05;;;;;;;2.27;2.13;;;4.60;99.90;;;;;;5073245;28;20199;-82
2023/12/06 03:42:31;;;;;;;0.98;0.98;;;4.60;99.90;;;;;;5070004;28;20431;-83
2023/12/06 03:44:57;;;;;;;0.90;0.90;;;4.60;99.90;;;;;;5056695;28;20168;-82
2023/12/06 03:47:23;;;;;;;1.53;1.43;;;4.60;99.90;;;;;;5056510;28;20232;-84
2023/12/06 03:49:49;;;;;;;0.68;0.68;;;4.60;99.90;;;;;;5057431;28;20180;-82
2023/12/06 03:52:15;;;;;;;5.73;1.30;;;;;;;;;;5053200;28;20244;-85
2023/12/06 03:54:40;;;;;;;1.30;1.20;;;4.60;99.90;;;;;;5065278;28;20173;-85
2023/12/06 03:57:06;;;;;;;0.77;0.77;;;;;;;;;;5060007;28;20439;-85
2023/12/06 03:59:32;;;;;;;0.65;0.65;;;4.60;99.90;;;;;;5040817;22;20319;-85
2023/12/06 04:01:57;;;;;;;2.53;2.00;;;4.60;99.90;;;;;;5020799;28;20179;-85
2023/12/06 04:04:25;;;;;;;1.13;1.13;;;;;;;;;;5019776;28;20178;-84
2023/12/06 04:06:50;;;;;;;1.80;1.50;;;4.60;99.90;;;;;;5019700;28;20174;-84
2023/12/06 04:09:16;;;;;;;0.70;0.60;;;;;;;;;;4996071;28;20211;-84
2023/12/06 04:11:42;;;;;;;1.70;1.23;;;;;;;;;;4991397;28;20669;-84
2023/12/06 04:14:08;;;;;;;1.47;1.37;;;;;;;;;;4987150;28;20434;-84
2023/12/06 04:16:36;;;;;;;0.50;0.40;;;4.60;99.90;;;;;;4988224;28;20415;-84
2023/12/06 04:19:02;;;;;;;0.55;0.50;;;4.60;99.90;;;;;;5011094;28;20502;-84
2023/12/06 04:21:27;;;;;;;0.40;0.40;;;4.60;99.90;;;;;;4963585;28;20172;-83
2023/12/06 04:23:53;;;;;;;0.90;0.77;;;;;;;;;;4986990;28;20183;-83
2023/12/06 04:26:19;;;;;;;1.27;1.03;;;;;;;;;;4979331;28;20213;-83
2023/12/06 04:28:45;;;;;;;0.57;0.57;;;4.60;99.90;;;;;;4984226;28;20488;-84
2023/12/06 04:31:11;;;;;;;0.50;0.50;;;;;;;;;;4989788;28;20443;-84
2023/12/06 04:33:36;;;;;;;0.60;0.60;;;4.60;99.90;;;;;;4985659;28;20201;-85
2023/12/06 04:36:02;;;;;;;0.40;0.33;;;5.20;99.90;;;;;;4979296;28;20479;-84
2023/12/06 04:38:28;;;;;;;0.40;0.40;;;;;;;;;;4988618;28;20206;-84
2023/12/06 04:40:54;;;;;;;0.70;0.70;;;;;;;;;;4988786;28;20198;-84
2023/12/06 04:43:19;;;;;;;0.87;0.87;;;4.60;99.90;;;;;;5018270;28;20412;-84
2023/12/06 04:45:45;;;;;;;0.70;0.60;;;5.70;99.90;;;;;;5011478;28;20412;-83
2023/12/06 04:48:11;;;;;;;0.40;0.40;;;;;;;;;;5015121;28;20653;-84
2023/12/06 04:50:37;;;;;;;1.90;0.87;;;;;;;;;;4998692;28;20179;-84
2023/12/06 04:53:03;;;;;;;0.60;0.53;;;;;;;;;;4981042;28;20415;-84
2023/12/06 04:55:29;;;;;;;1.47;1.37;;;;;;;;;;4998942;28;20406;-84
2023/12/06 04:57:54;;;;;;;0.60;0.60;;;;;;;;;;4980692;28;20446;-84
2023/12/06 05:00:21;;;;;;;0.50;0.40;;;4.50;99.90;;;;;;5005628;28;20557;-84
2023/12/06 05:02:47;;;;;;;0.90;0.60;;;4.50;99.90;;;;;;5008595;28;20969;-82
2023/12/06 05:05:13;;;;;;;0.53;0.50;;;;;;;;;;4989559;28;20266;-83
2023/12/06 05:07:39;;;;;;;0.55;0.55;;;;;;;;;;4977130;28;20455;-82
2023/12/06 05:10:05;;;;;;;0.93;0.83;;;4.20;99.90;;;;;;4989698;28;20255;-82
2023/12/06 05:12:31;;;;;;;1.93;0.50;;;4.40;99.90;;;;;;5011878;28;20446;-84
2023/12/06 05:14:56;;;;;;;0.60;0.50;;;4.40;99.90;;;;;;5003697;28;20485;-83
2023/12/06 05:17:22;;;;;;;0.97;0.90;;;;;;;;;;4998374;28;20182;-83
2023/12/06 05:19:48;;;;;;;1.20;0.80;;;4.40;99.90;;;;;;4986419;28;20276;-85
2023/12/06 05:22:14;;;;;;;0.67;0.67;;;1.00;99.90;;;;;;4997300;28;20925;-83
2023/12/06 05:24:40;;;;;;;1.03;0.97;;;4.40;99.90;;;;;;5000095;28;20406;-82
2023/12/06 05:27:05;;;;;;;1.83;1.13;;;4.30;99.90;;;;;;5003883;28;20414;-82
2023/12/06 05:29:32;;;;;;;0.80;0.77;;;4.40;99.90;;;;;;5006201;28;20208;-82
2023/12/06 05:31:58;;;;;;;0.70;0.70;;;;;;;;;;4989038;28;20190;-82
2023/12/06 05:34:23;;;;;;;0.80;0.77;;;4.40;99.90;;;;;;4999944;28;20721;-83
2023/12/06 05:36:49;;;;;;;1.80;1.70;;;4.40;99.90;;;;;;4986838;28;20171;-84
2023/12/06 05:39:14;;;;;;;3.60;1.13;;;4.40;99.90;;;;;;4994655;28;20190;-82
2023/12/06 05:41:40;;;;;;;0.60;0.60;;;;;;;;;;5012036;28;20270;-83
2023/12/06 05:44:06;;;;;;;6.47;3.40;;;4.30;99.90;;;;;;5014838;28;20644;-83
2023/12/06 05:46:32;;;;;;;1.63;1.30;;;;;;;;;;4994843;28;20344;-83
2023/12/06 05:48:58;;;;;;;1.85;1.60;;;4.30;99.90;;;;;;4990814;28;20196;-84
2023/12/06 05:51:24;;;;;;;2.17;1.33;;;;;;;;;;4985851;28;20182;-84
2023/12/06 05:53:50;;;;;;;1.20;1.17;;;4.40;99.90;;;;;;4979854;28;20202;-83
2023/12/06 05:56:16;;;;;;;1.43;1.33;;;;;;;;;;4985586;28;20172;-85
2023/12/06 05:58:42;;;;;;;1.30;1.08;;;4.30;99.90;;;;;;4995100;28;20457;-83
2023/12/06 06:01:08;;;;;;;1.73;1.60;;;;;;;;;;4981260;28;20193;-84
2023/12/06 06:03:34;;;;;;;2.03;1.92;;;;;;;;;;4998685;28;20875;-84
2023/12/06 06:06:12;;;;;;;2.13;1.30;;;4.30;99.90;;;;;;4991846;28;20199;-83
2023/12/06 06:08:37;;;;;;;1.42;1.33;;;4.30;99.90;;;;;;4982452;28;20198;-84
2023/12/06 06:11:04;;;;;;;1.10;1.00;;;4.90;99.90;;;;;;4997097;28;20187;-83
2023/12/06 06:13:30;;;;;;;1.52;1.17;;;4.30;99.90;;;;;;5001280;28;20224;-83
2023/12/06 06:15:56;;;;;;;1.08;0.98;;;4.40;99.90;;;;;;4978945;28;20176;-82
2023/12/06 06:18:23;;;;;;;0.75;0.75;;;;;;;;;;4981027;28;20208;-84
2023/12/06 06:20:48;;;;;;;1.50;1.25;;;4.40;99.90;;;;;;4975384;28;20202;-83
2023/12/06 06:23:14;;;;;;;1.33;1.23;;;;;;;;;;4987593;28;20172;-84
2023/12/06 06:25:40;;;;;;;4.80;1.10;;;4.50;99.90;;;;;;4974440;28;20228;-84
2023/12/06 06:28:09;;;;;;;1.10;1.00;;;4.50;99.90;;;;;;4999523;28;20203;-84
2023/12/06 06:30:35;;;;;;;0.57;0.57;;;;;;;;;;4976093;28;20191;-83
2023/12/06 06:33:01;;;;;;;1.42;1.33;;;4.60;99.90;;;;;;4993451;28;20266;-83
2023/12/06 06:35:26;;;;;;;3.00;1.33;;;4.60;99.90;;;;;;4999951;28;20218;-85
2023/12/06 06:37:52;;;;;;;11.03;1.77;;;;;;;;;;4989569;28;20245;-84
2023/12/06 06:40:18;;;;;;;1.63;1.52;;;4.60;99.90;;;;;;4994009;28;20592;-84
2023/12/06 06:42:44;;;;;;;1.90;1.03;;;;;;;;;;4993938;28;20183;-85
2023/12/06 06:45:10;;;;;;;0.83;0.80;;;;;;;;;;4998308;28;21219;-83
2023/12/06 06:47:38;;;;;;;0.70;0.70;;;4.60;99.90;;;;;;4987315;28;20428;-82
2023/12/06 06:50:07;;;;;;;2.78;0.90;;;4.70;99.90;;;;;;4992449;28;20192;-85
2023/12/06 06:52:34;;;;;;;2.00;1.23;;;4.70;99.90;;;;;;4976674;28;20214;-86
2023/12/06 06:55:00;;;;;;;2.15;1.50;;;;;;;;;;4981724;28;20183;-85
2023/12/06 06:57:26;;;;;;;1.35;0.98;;;4.70;99.90;;;;;;4994879;28;20294;-83
2023/12/06 06:59:52;;;;;;;4.73;2.83;;;;;;;;;;4990230;28;20243;-83
2023/12/06 07:02:18;;;;;;;0.93;0.83;;;4.70;99.90;;;;;;4974446;28;20209;-83
2023/12/06 07:04:44;;;;;;;3.42;2.00;;;4.70;99.90;;;;;;4995889;28;20407;-84
2023/12/06 07:07:10;;;;;;;1.47;0.80;;;;;;;;;;4988577;28;20163;-83
2023/12/06 07:09:36;;;;;;;1.63;1.23;;;4.60;99.90;;;;;;4983456;28;20447;-84
2023/12/06 07:12:03;;;;;;;8.00;2.80;;;7.70;99.90;;;;;;4982320;28;20196;-85
2023/12/06 07:14:29;;;;;;;4.38;2.20;;;4.70;99.90;;;;;;4995185;28;20195;-84
2023/12/06 07:16:55;;;;;;;5.63;2.42;;;4.60;99.90;;;;;;4978338;28;20171;-83
2023/12/06 07:19:21;;;;;;;3.13;1.53;;;;;;;;;;4976860;28;20219;-83
2023/12/06 07:21:48;;;;;;;4.13;1.80;;;4.50;99.90;;;;;;4993087;28;20423;-83
2023/12/06 07:24:13;;;;;;;3.70;1.60;;;4.50;99.90;;;;;;4990408;28;20179;-84
2023/12/06 07:26:39;;;;;;;1.80;1.53;;;4.50;99.90;;;;;;4996588;28;20222;-83
2023/12/06 07:29:05;;;;;;;1.90;1.37;;;;;;;;;;4980269;28;20203;-83
2023/12/06 07:31:34;;;;;;;1.50;1.30;;;4.50;99.90;;;;;;4994775;28;20504;-83
2023/12/06 07:33:59;;;;;;;1.25;0.95;;;4.50;99.90;;;;;;4984462;28;20195;-83
2023/12/06 07:36:25;;;;;;;4.30;2.50;;;;;;;;;;4986605;28;20224;-84
2023/12/06 07:38:51;;;;;;;1.27;1.07;;;;;;;;;;4978059;28;20208;-83
2023/12/06 07:41:17;;;;;;;4.00;1.70;;;;;;;;;;4983456;28;20426;-83
2023/12/06 07:43:43;;;;;;;4.53;2.40;;;;;;;;;;4990977;28;20437;-83
2023/12/06 07:46:09;;;;;;;3.33;2.40;;;4.40;99.90;;;;;;4990641;28;20244;-82
2023/12/06 07:48:37;;;;;;;2.57;2.03;;;;;;;;;;4991587;28;20470;-83
2023/12/06 07:51:03;;;;;;;3.00;1.10;;;4.40;99.90;;;;;;4989475;28;20179;-83
2023/12/06 07:53:29;;;;;;;4.43;1.77;;;4.40;99.90;;;;;;4990513;28;20184;-83
2023/12/06 07:55:55;;;;;;;1.23;1.13;;;;;;;;;;4993867;28;20194;-84
2023/12/06 07:58:21;;;;;;;1.70;1.42;;;4.40;99.90;;;;;;4990505;28;20219;-83
2023/12/06 08:00:46;;;;;;;2.30;1.63;;;4.30;99.90;;;;;;4984331;28;20213;-82
2023/12/06 08:03:12;;;;;;;4.87;4.53;;;;;;;;;;4980784;28;20191;-83
2023/12/06 08:05:38;;;;;;;4.07;1.87;;;4.20;99.90;;;;;;4989456;28;20975;-83
2023/12/06 08:08:05;;;;;;;1.80;1.13;;;4.20;99.90;;;;;;4995874;28;20513;-83
2023/12/06 08:10:32;;;;;;;2.58;2.38;;;4.20;99.90;;;;;;4998200;28;20195;-83
2023/12/06 08:12:58;;;;;;;0.80;0.80;;;4.10;99.90;;;;;;4993906;28;21187;-83
2023/12/06 08:15:24;;;;;;;1.67;1.57;;;4.20;99.90;;;;;;4991882;28;20187;-82
2023/12/06 08:17:50;;;;;;;2.15;1.95;;;4.10;99.90;;;;;;4976689;28;20211;-83
2023/12/06 08:20:16;;;;;;;2.20;2.00;;;;;;;;;;4991320;28;20221;-82
2023/12/06 08:22:41;;;;;;;5.38;2.25;;;4.00;99.90;;;;;;4991978;28;20188;-83
2023/12/06 08:25:07;;;;;;;5.83;1.87;;;4.00;99.90;;;;;;4991421;28;20202;-83
2023/12/06 08:27:34;;;;;;;3.77;1.77;;;3.90;99.90;;;;;;4994102;28;20675;-82
2023/12/06 08:30:00;;;;;;;3.67;1.95;;;3.80;99.90;;;;;;4986981;28;20439;-83
2023/12/06 08:32:26;;;;;;;4.53;1.93;;;3.80;99.90;;;;;;4988285;28;20775;-84
2023/12/06 08:34:52;;;;;;;4.25;1.77;;;3.80;99.90;;;;;;4977473;28;20446;-84
2023/12/06 08:37:18;;;;;;;3.83;2.63;;;3.80;99.90;;;;;;4981775;28;20193;-84
2023/12/06 08:39:44;;;;;;;6.35;2.08;;;3.70;99.90;;;;;;4988639;28;20617;-84
2023/12/06 08:42:12;;;;;;;2.03;1.13;;;3.80;99.90;;;;;;4972951;28;20175;-85
2023/12/06 08:44:37;;;;;;;4.43;2.38;;;3.80;99.90;;;;;;4984726;28;20175;-84
2023/12/06 08:47:03;;;;;;;4.23;1.70;;;3.70;99.90;;;;;;4988402;28;20184;-84
2023/12/06 08:49:29;;;;;;;6.38;2.95;;;3.70;99.90;;;;;;4989523;28;20219;-84
2023/12/06 08:51:55;;;;;;;4.13;1.80;;;;;;;;;;4987625;28;20201;-83
2023/12/06 08:54:20;;;;;;;7.65;2.75;;;3.70;99.90;;;;;;4992087;28;20222;-84
2023/12/06 08:56:46;;;;;;;3.23;1.67;;;3.70;99.90;;;;;;4991357;28;20187;-84
2023/12/06 08:59:12;;;;;;;4.40;2.97;;;3.60;99.90;;;;;;4992756;28;20223;-83
2023/12/06 09:01:37;;;;;;;3.77;2.03;;;;;;;;;;4988959;28;20198;-83
2023/12/06 09:04:03;;;;;;;2.10;1.60;;;;;;;;;;4991011;28;20263;-84
2023/12/06 09:06:29;;;;;;;7.80;3.53;;;3.60;99.90;;;;;;4969980;28;20459;-83
2023/12/06 09:08:55;;;;;;;2.13;1.90;;;;;;;;;;4991962;28;20678;-84
2023/12/06 09:11:21;;;;;;;5.90;2.10;;;;;;;;;;4987196;28;20186;-83
2023/12/06 09:13:48;;;;;;;2.40;2.08;;;3.60;99.90;;;;;;4989584;28;20449;-83
2023/12/06 09:16:14;;;;;;;6.07;1.83;;;3.70;99.90;;;;;;4996109;28;20734;-83
2023/12/06 09:18:40;;;;;;;6.45;4.18;;;3.70;99.90;;;;;;5057441;28;20214;-83
2023/12/06 09:21:05;;;;;;;4.83;3.50;;;3.70;99.90;;;;;;4988981;28;20211;-83
2023/12/06 09:23:32;;;;;;;4.57;2.23;;;3.70;99.90;;;;;;4984789;28;20182;-83
2023/12/06 09:25:59;;;;;;;3.03;1.90;;;3.70;99.90;;;;;;4992118;28;20258;-83
2023/12/06 09:28:25;;;;;;;10.32;4.60;;;3.70;99.90;;;;;;4996975;28;20841;-83
2023/12/06 09:30:51;;;;;;;5.55;2.80;;;3.70;99.90;;;;;;4986927;28;20183;-84
2023/12/06 09:33:18;;;;;;;5.23;3.07;;;3.70;99.90;;;;;;4986400;28;20198;-84
2023/12/06 09:35:43;;;;;;;3.05;2.38;;;3.70;99.90;;;;;;4989939;28;20458;-83
2023/12/06 09:38:09;;;;;;;3.23;2.07;;;;;;;;;;4972388;28;20207;-83
2023/12/06 09:40:35;;;;;;;3.07;1.37;;;;;;;;;;4975571;28;20219;-83
2023/12/06 09:43:04;;;;;;;6.90;3.93;;;3.80;99.90;;;;;;4986528;28;20480;-83
2023/12/06 09:45:30;;;;;;;4.28;3.85;;;3.90;99.90;;;;;;4995163;28;20462;-84
2023/12/06 09:47:56;;;;;;;3.70;2.40;;;3.80;99.90;;;;;;4995928;28;20251;-83
2023/12/06 09:50:25;;;;;;;5.75;2.65;;;3.70;99.90;;;;;;4998360;28;20434;-83
2023/12/06 09:52:52;;;;;;;5.30;2.97;;;3.70;99.90;;;;;;4980376;28;20213;-83
2023/12/06 09:55:26;;;;;;;3.95;1.70;;;3.70;99.90;;;;;;4998158;28;20930;-84
2023/12/06 16:01:02;;;;;;;7.00;4.07;;;3.90;99.90;;;;;;5019586;23;20853;-83
2023/12/06 16:03:28;;;;;;;6.97;5.23;;;;;;;;;;5009429;28;20195;-83
2023/12/06 16:05:54;;;;;;;7.00;4.37;;;;;;;;;;5010238;28;20448;-81
2023/12/06 16:08:20;;;;;;;8.23;5.03;;;;;;;;;;4987303;28;20434;-83
2023/12/06 16:10:47;;;;;;;9.48;4.88;;;;;;;;;;4988463;28;20461;-81
2023/12/06 16:13:13;;;;;;;13.10;5.93;;;;;;;;;;4988098;28;20301;-82
2023/12/06 16:15:41;;;;;;;8.20;4.50;;;;;;;;;;4981045;28;20220;-82
2023/12/06 16:18:06;;;;;;;7.18;3.50;;;3.90;99.90;;;;;;4983628;28;20444;-81
2023/12/06 16:20:32;;;;;;;6.10;3.47;;;3.90;99.90;;;;;;4971649;28;21094;-81
2023/12/06 16:22:57;;;;;;;4.90;3.27;;;3.90;99.90;;;;;;4985853;28;20199;-80
2023/12/06 16:25:24;;;;;;;3.80;3.20;;;;;;;;;;4985733;28;20308;-81
2023/12/06 16:27:49;;;;;;;3.67;2.00;;;3.90;99.90;;;;;;4985129;28;20205;-80
2023/12/06 16:30:15;;;;;;;8.90;4.35;;;;;;;;;;4982474;28;20438;-81
2023/12/06 16:32:41;;;;;;;13.90;4.60;;;4.00;99.90;;;;;;4970401;28;20238;-82
2023/12/06 16:35:07;;;;;;;5.03;2.87;;;4.00;99.90;;;;;;4977502;28;20203;-79
2023/12/06 16:37:33;;;;;;;4.15;2.13;;;4.00;99.90;;;;;;4988926;28;20201;-81
2023/12/06 16:39:58;;;;;;;5.70;3.50;;;4.00;99.90;;;;;;4976124;28;20226;-81
2023/12/06 16:42:24;;;;;;;6.47;3.00;;;3.90;99.90;;;;;;4989215;28;20198;-81
2023/12/06 16:44:50;;;;;;;3.50;2.10;;;3.80;99.90;;;;;;4966642;28;20201;-81
2023/12/06 16:47:15;;;;;;;2.70;1.90;;;3.80;99.90;;;;;;4975257;28;20255;-80
2023/12/06 16:49:41;;;;;;;5.60;4.10;;;3.80;99.90;;;;;;4973966;28;20215;-80
2023/12/06 16:52:07;;;;;;;4.83;3.07;;;3.80;99.90;;;;;;4983691;28;20446;-81
2023/12/06 16:54:33;;;;;;;6.63;3.60;;;3.70;99.90;;;;;;4976607;28;21243;-80
2023/12/06 16:56:59;;;;;;;5.83;2.60;;;3.70;99.90;;;;;;4988210;28;20439;-80
2023/12/06 16:59:24;;;;;;;6.70;4.10;;;3.70;99.90;;;;;;4976293;28;20223;-80
2023/12/06 17:01:50;;;;;;;9.73;3.90;;;6.40;99.90;;;;;;4973028;28;20179;-80
2023/12/06 17:04:16;;;;;;;7.60;4.60;;;;;;;;;;4986559;28;20210;-80
2023/12/06 17:06:41;;;;;;;13.45;4.10;;;3.60;99.90;;;;;;4986108;28;20198;-81
2023/12/06 17:09:07;;;;;;;5.20;3.70;;;3.50;99.90;;;;;;4982373;28;20171;-80
2023/12/06 17:11:33;;;;;;;4.20;2.80;;;3.50;99.90;;;;;;4987716;28;20191;-80
2023/12/06 17:13:59;;;;;;;7.10;3.33;;;3.60;99.90;;;;;;4984767;28;20179;-82
2023/12/06 17:16:26;;;;;;;5.00;3.00;;;3.60;99.90;;;;;;4985996;28;20463;-82
2023/12/06 17:18:53;;;;;;;7.78;3.05;;;3.50;99.90;;;;;;4979449;28;20533;-81
2023/12/06 17:21:19;;;;;;;5.35;3.60;;;3.60;99.90;;;;;;4985410;28;20230;-82
2023/12/06 17:23:45;;;;;;;9.55;3.42;;;3.60;99.90;;;;;;4985742;28;20192;-81
2023/12/06 17:26:11;;;;;;;9.80;3.23;;;3.60;99.90;;;;;;4988433;28;20259;-82
2023/12/06 17:28:36;;;;;;;4.60;2.58;;;3.60;99.90;;;;;;4971923;28;20471;-81
2023/12/06 17:31:02;;;;;;;4.73;2.63;;;3.60;99.90;;;;;;4987860;28;20207;-81
2023/12/06 17:33:28;;;;;;;5.75;2.58;;;3.70;99.90;;;;;;4972581;28;20214;-79
2023/12/06 17:35:54;;;;;;;9.50;4.07;;;3.70;99.90;;;;;;4984995;28;20198;-80
2023/12/06 17:38:19;;;;;;;15.10;6.37;;;3.70;99.90;;;;;;4986088;28;20199;-80
2023/12/06 17:40:45;;;;;;;20.20;8.23;;;3.80;99.90;;;;;;4991811;28;20234;-80
2023/12/06 17:43:10;;;;;;;6.03;4.80;;;3.80;99.90;;;;;;4984781;28;20191;-79
2023/12/06 17:45:37;;;;;;;8.23;7.53;;;3.80;99.90;;;;;;4988972;28;20187;-80
2023/12/06 17:48:02;;;;;;;10.63;6.78;;;3.70;99.90;;;;;;4986334;28;20211;-82
2023/12/06 17:50:28;;;;;;;7.83;5.17;;;3.70;99.90;;;;;;4971320;28;20207;-80
2023/12/06 17:52:53;;;;;;;6.90;4.93;;;3.70;99.90;;;;;;4986761;28;20191;-82
2023/12/06 17:55:19;;;;;;;5.50;3.43;;;3.60;99.90;;;;;;4988177;28;20262;-80
2023/12/06 17:57:45;;;;;;;4.50;4.10;;;3.50;99.90;;;;;;4987045;28;20205;-82
2023/12/06 18:00:11;;;;;;;9.87;5.30;;;6.50;99.90;;;;;;4968950;28;20305;-80
2023/12/06 18:02:37;;;;;;;6.03;3.20;;;3.40;99.90;;;;;;4989663;28;20179;-81
2023/12/06 18:05:04;;;;;;;8.02;5.30;;;3.20;99.90;;;;;;4990428;28;20199;-80
2023/12/06 18:07:33;;;;;;;10.75;6.05;;;3.20;99.90;;;;;;4992399;28;20220;-81
2023/12/06 18:10:04;;;;;;;6.05;3.47;;;3.20;99.90;;;;;;4992933;28;20219;-81
2023/12/06 18:12:30;;;;;;;4.15;2.83;;;3.20;99.90;;;;;;4991953;28;20184;-80
2023/12/06 18:14:57;;;;;;;7.68;3.28;;;3.20;99.90;;;;;;4991281;28;20176;-80
2023/12/06 18:17:23;;;;;;;5.13;2.65;;;3.30;99.90;;;;;;4990648;28;20176;-81
2023/12/06 18:19:49;;;;;;;8.27;3.45;;;3.30;99.90;;;;;;4986348;28;20211;-82
2023/12/06 18:22:16;;;;;;;3.40;1.92;;;3.30;99.90;;;;;;4987262;28;20189;-82
2023/12/06 18:24:42;;;;;;;9.68;2.60;;;3.30;99.90;;;;;;4990402;28;20250;-82
2023/12/06 18:27:08;;;;;;;4.13;2.38;;;3.30;99.90;;;;;;4987998;28;20179;-80
2023/12/06 18:29:34;;;;;;;4.67;3.40;;;3.40;99.90;;;;;;4970878;28;20215;-83
2023/12/06 18:32:00;;;;;;;4.40;2.95;;;3.40;99.90;;;;;;4989427;28;20199;-82
2023/12/06 18:34:26;;;;;;;4.23;2.37;;;3.40;99.90;;;;;;4983418;28;20187;-80
2023/12/06 18:36:52;;;;;;;12.83;2.80;;;3.40;99.90;;;;;;4989877;28;20188;-81
2023/12/06 18:39:17;;;;;;;2.77;1.60;;;3.50;99.90;;;;;;4972610;28;20549;-82
2023/12/06 18:41:43;;;;;;;1.27;1.17;;;3.40;99.90;;;;;;4986282;28;20193;-81
2023/12/06 18:44:09;;;;;;;4.90;3.20;;;3.40;99.90;;;;;;4982904;28;20187;-81
2023/12/06 18:46:35;;;;;;;3.03;1.60;;;3.40;99.90;;;;;;4971941;28;20195;-81
2023/12/06 18:49:01;;;;;;;3.73;1.70;;;3.40;99.90;;;;;;4986112;28;20180;-81
2023/12/06 18:51:27;;;;;;;4.97;3.03;;;3.40;99.90;;;;;;4968927;28;20448;-82
2023/12/06 18:53:55;;;;;;;3.73;2.60;;;3.40;99.90;;;;;;4987195;28;20272;-81
2023/12/06 18:56:22;;;;;;;2.28;1.83;;;3.30;99.90;;;;;;4991243;28;20180;-80
2023/12/06 18:58:48;;;;;;;3.47;1.40;;;3.20;99.90;;;;;;4989865;28;20825;-82
2023/12/06 19:01:17;;;;;;;4.53;3.17;;;3.20;99.90;;;;;;4990509;28;20497;-81
2023/12/06 19:03:48;;;;;;;1.35;1.15;;;3.30;99.90;;;;;;4988156;28;20186;-81
2023/12/06 19:06:14;;;;;;;2.45;1.05;;;3.30;99.90;;;;;;4992666;28;20171;-81
2023/12/06 19:08:40;;;;;;;2.87;1.63;;;3.30;99.90;;;;;;4987733;28;20174;-80
2023/12/06 19:11:06;;;;;;;2.30;0.95;;;3.30;99.90;;;;;;4985897;28;20199;-81
2023/12/06 19:13:33;;;;;;;1.80;1.70;;;3.20;99.90;;;;;;4985417;28;20524;-80
2023/12/06 19:16:02;;;;;;;4.25;1.73;;;3.10;99.90;;;;;;4975214;28;20190;-80
2023/12/06 19:18:31;;;;;;;4.13;2.75;;;3.10;99.90;;;;;;4992945;28;20209;-81